sensor_id;sensor_type;location;lat;lon;timestamp;P1;P2;P0
34176;PMS7003;20450;49.074;9.158;2023-12-07T00:01:52;29.33;25.67;19.00
34176;PMS7003;20450;49.074;9.158;2023-12-07T00:04:20;21.25;18.75;12.25
34176;PMS7003;20450;49.074;9.158;2023-12-07T00:06:47;35.25;28.50;19.75
34176;PMS7003;20450;49.074;9.158;2023-12-07T00:09:13;28.25;26.25;18.50
34176;PMS7003;20450;49.074;9.158;2023-12-07T00:11:44;27.25;26.50;19.50
34176;PMS7003;20450;49.074;9.158;2023-12-07T00:14:12;33.00;27.00;19.25
34176;PMS7003;20450;49.074;9.158;2023-12-07T00:16:38;30.75;27.00;19.25
34176;PMS7003;20450;49.074;9.158;2023-12-07T00:19:05;26.75;25.75;18.25
34176;PMS7003;20450;49.074;9.158;2023-12-07T00:21:32;27.00;26.00;18.50
34176;PMS7003;20450;49.074;9.158;2023-12-07T00:24:00;31.50;28.00;19.25
34176;PMS7003;20450;49.074;9.158;2023-12-07T00:26:27;32.50;28.00;20.75
34176;PMS7003;20450;49.074;9.158;2023-12-07T00:28:55;36.75;33.25;23.50
34176;PMS7003;20450;49.074;9.158;2023-12-07T00:31:22;28.25;26.25;20.00
34176;PMS7003;20450;49.074;9.158;2023-12-07T00:33:49;30.75;27.25;20.25
34176;PMS7003;20450;49.074;9.158;2023-12-07T00:36:16;30.75;27.50;19.75
34176;PMS7003;20450;49.074;9.158;2023-12-07T00:38:43;28.00;26.75;19.00
34176;PMS7003;20450;49.074;9.158;2023-12-07T00:41:12;30.75;25.00;19.00
34176;PMS7003;20450;49.074;9.158;2023-12-07T00:43:39;29.00;27.25;19.25
34176;PMS7003;20450;49.074;9.158;2023-12-07T00:46:08;24.00;22.25;16.50
34176;PMS7003;20450;49.074;9.158;2023-12-07T00:48:37;25.75;24.75;18.25
34176;PMS7003;20450;49.074;9.158;2023-12-07T00:51:04;28.75;27.25;18.50
34176;PMS7003;20450;49.074;9.158;2023-12-07T00:53:31;28.75;26.50;19.00
34176;PMS7003;20450;49.074;9.158;2023-12-07T00:56:00;30.25;26.00;17.75
34176;PMS7003;20450;49.074;9.158;2023-12-07T00:58:29;27.00;25.25;18.25
34176;PMS7003;20450;49.074;9.158;2023-12-07T01:00:57;33.25;27.00;19.00
34176;PMS7003;20450;49.074;9.158;2023-12-07T01:03:25;30.75;28.00;19.25
34176;PMS7003;20450;49.074;9.158;2023-12-07T01:05:53;26.25;24.75;18.50
34176;PMS7003;20450;49.074;9.158;2023-12-07T01:08:20;35.75;31.75;22.50
34176;PMS7003;20450;49.074;9.158;2023-12-07T01:10:47;30.25;27.50;19.00
34176;PMS7003;20450;49.074;9.158;2023-12-07T01:13:16;30.75;29.75;21.50
34176;PMS7003;20450;49.074;9.158;2023-12-07T01:15:43;32.00;29.50;19.25
34176;PMS7003;20450;49.074;9.158;2023-12-07T01:18:10;29.75;28.75;21.00
34176;PMS7003;20450;49.074;9.158;2023-12-07T01:20:38;25.25;24.50;17.75
34176;PMS7003;20450;49.074;9.158;2023-12-07T01:23:05;27.50;25.75;18.00
34176;PMS7003;20450;49.074;9.158;2023-12-07T01:25:33;28.00;28.00;21.75
34176;PMS7003;20450;49.074;9.158;2023-12-07T01:28:00;23.25;23.25;17.25
34176;PMS7003;20450;49.074;9.158;2023-12-07T01:30:27;30.00;27.75;20.50
34176;PMS7003;20450;49.074;9.158;2023-12-07T01:32:55;25.75;23.25;17.75
34176;PMS7003;20450;49.074;9.158;2023-12-07T01:35:22;23.00;20.75;16.50
34176;PMS7003;20450;49.074;9.158;2023-12-07T01:37:50;27.75;24.50;19.00
34176;PMS7003;20450;49.074;9.158;2023-12-07T01:40:17;25.25;24.00;17.25
34176;PMS7003;20450;49.074;9.158;2023-12-07T01:42:51;26.00;25.00;20.00
34176;PMS7003;20450;49.074;9.158;2023-12-07T01:45:20;25.50;25.25;20.00
34176;PMS7003;20450;49.074;9.158;2023-12-07T01:47:47;23.00;21.75;17.00
34176;PMS7003;20450;49.074;9.158;2023-12-07T01:50:18;27.00;26.25;19.50
34176;PMS7003;20450;49.074;9.158;2023-12-07T01:52:47;29.25;28.00;20.00
34176;PMS7003;20450;49.074;9.158;2023-12-07T01:55:23;31.25;29.00;20.50
34176;PMS7003;20450;49.074;9.158;2023-12-07T01:57:52;29.25;27.50;20.00
34176;PMS7003;20450;49.074;9.158;2023-12-07T02:00:19;31.25;29.75;21.50
34176;PMS7003;20450;49.074;9.158;2023-12-07T02:02:47;32.00;30.50;21.50
34176;PMS7003;20450;49.074;9.158;2023-12-07T02:05:15;33.50;30.75;21.50
34176;PMS7003;20450;49.074;9.158;2023-12-07T02:07:46;41.25;33.25;22.75
34176;PMS7003;20450;49.074;9.158;2023-12-07T02:10:16;34.25;30.75;20.75
34176;PMS7003;20450;49.074;9.158;2023-12-07T02:12:44;35.00;30.25;21.00
34176;PMS7003;20450;49.074;9.158;2023-12-07T02:15:12;34.50;31.50;23.00
34176;PMS7003;20450;49.074;9.158;2023-12-07T02:17:41;34.25;29.75;22.00
34176;PMS7003;20450;49.074;9.158;2023-12-07T02:20:21;35.50;29.75;21.25
34176;PMS7003;20450;49.074;9.158;2023-12-07T02:22:59;27.25;24.75;18.25
34176;PMS7003;20450;49.074;9.158;2023-12-07T02:25:35;26.50;25.25;18.75
34176;PMS7003;20450;49.074;9.158;2023-12-07T02:28:11;29.75;28.25;21.00
34176;PMS7003;20450;49.074;9.158;2023-12-07T02:30:39;30.00;28.75;20.50
34176;PMS7003;20450;49.074;9.158;2023-12-07T02:33:06;25.50;23.50;17.25
34176;PMS7003;20450;49.074;9.158;2023-12-07T02:35:35;24.75;21.25;16.25
34176;PMS7003;20450;49.074;9.158;2023-12-07T02:38:04;26.50;24.75;17.00
34176;PMS7003;20450;49.074;9.158;2023-12-07T02:40:33;29.00;26.00;20.00
34176;PMS7003;20450;49.074;9.158;2023-12-07T02:43:02;18.00;16.75;14.00
34176;PMS7003;20450;49.074;9.158;2023-12-07T02:45:32;20.50;18.75;15.00
34176;PMS7003;20450;49.074;9.158;2023-12-07T02:48:01;24.00;19.25;15.00
34176;PMS7003;20450;49.074;9.158;2023-12-07T02:50:28;22.75;22.50;18.00
34176;PMS7003;20450;49.074;9.158;2023-12-07T02:52:55;18.25;16.25;14.75
34176;PMS7003;20450;49.074;9.158;2023-12-07T02:55:22;22.00;19.00;14.75
34176;PMS7003;20450;49.074;9.158;2023-12-07T02:57:50;19.50;19.50;15.75
34176;PMS7003;20450;49.074;9.158;2023-12-07T03:00:18;21.00;18.75;14.75
34176;PMS7003;20450;49.074;9.158;2023-12-07T03:03:31;21.50;20.75;14.50
34176;PMS7003;20450;49.074;9.158;2023-12-07T03:05:58;20.25;18.75;15.25
34176;PMS7003;20450;49.074;9.158;2023-12-07T03:08:26;19.25;19.25;16.75
34176;PMS7003;20450;49.074;9.158;2023-12-07T03:10:53;21.75;21.50;16.50
34176;PMS7003;20450;49.074;9.158;2023-12-07T03:13:20;23.00;19.50;16.50
34176;PMS7003;20450;49.074;9.158;2023-12-07T03:15:47;24.00;23.00;18.00
34176;PMS7003;20450;49.074;9.158;2023-12-07T03:18:14;24.25;21.75;16.75
34176;PMS7003;20450;49.074;9.158;2023-12-07T03:20:43;17.25;17.25;13.00
34176;PMS7003;20450;49.074;9.158;2023-12-07T03:23:14;18.25;17.75;14.00
34176;PMS7003;20450;49.074;9.158;2023-12-07T03:25:42;21.00;19.50;15.25
34176;PMS7003;20450;49.074;9.158;2023-12-07T03:28:10;22.00;20.50;15.50
34176;PMS7003;20450;49.074;9.158;2023-12-07T03:30:38;20.50;20.50;16.25
34176;PMS7003;20450;49.074;9.158;2023-12-07T03:33:05;20.50;20.25;16.75
34176;PMS7003;20450;49.074;9.158;2023-12-07T03:35:32;21.50;20.75;16.25
34176;PMS7003;20450;49.074;9.158;2023-12-07T03:38:01;22.25;21.50;16.75
34176;PMS7003;20450;49.074;9.158;2023-12-07T03:40:28;24.75;23.25;16.75
34176;PMS7003;20450;49.074;9.158;2023-12-07T03:42:55;31.25;26.00;19.75
34176;PMS7003;20450;49.074;9.158;2023-12-07T03:45:23;31.67;31.67;20.00
34176;PMS7003;20450;49.074;9.158;2023-12-07T03:47:50;31.25;28.00;20.50
34176;PMS7003;20450;49.074;9.158;2023-12-07T03:50:17;27.00;26.00;19.33
34176;PMS7003;20450;49.074;9.158;2023-12-07T03:52:44;27.00;25.25;19.75
34176;PMS7003;20450;49.074;9.158;2023-12-07T03:55:13;27.25;25.50;19.25
34176;PMS7003;20450;49.074;9.158;2023-12-07T03:57:43;27.25;26.00;18.75
34176;PMS7003;20450;49.074;9.158;2023-12-07T04:00:10;25.75;23.75;17.00
34176;PMS7003;20450;49.074;9.158;2023-12-07T04:02:39;24.00;22.25;17.25
34176;PMS7003;20450;49.074;9.158;2023-12-07T04:05:06;24.75;24.50;19.25
34176;PMS7003;20450;49.074;9.158;2023-12-07T04:07:35;29.00;27.67;20.33
34176;PMS7003;20450;49.074;9.158;2023-12-07T04:10:03;30.25;26.75;19.00
34176;PMS7003;20450;49.074;9.158;2023-12-07T04:12:32;22.75;22.75;17.75
34176;PMS7003;20450;49.074;9.158;2023-12-07T04:15:07;26.25;24.75;18.50
34176;PMS7003;20450;49.074;9.158;2023-12-07T04:17:35;23.00;23.00;19.25
34176;PMS7003;20450;49.074;9.158;2023-12-07T04:20:02;26.33;24.00;19.33
34176;PMS7003;20450;49.074;9.158;2023-12-07T04:22:31;24.67;24.67;18.67
34176;PMS7003;20450;49.074;9.158;2023-12-07T04:24:59;25.00;21.00;16.50
34176;PMS7003;20450;49.074;9.158;2023-12-07T04:27:26;29.33;27.00;18.67
34176;PMS7003;20450;49.074;9.158;2023-12-07T04:29:55;28.67;27.67;19.33
34176;PMS7003;20450;49.074;9.158;2023-12-07T04:32:22;25.00;25.00;18.00
34176;PMS7003;20450;49.074;9.158;2023-12-07T04:34:50;27.33;25.67;19.00
34176;PMS7003;20450;49.074;9.158;2023-12-07T04:37:17;24.25;22.75;17.00
34176;PMS7003;20450;49.074;9.158;2023-12-07T04:39:44;34.33;33.67;23.00
34176;PMS7003;20450;49.074;9.158;2023-12-07T04:42:12;35.33;34.33;23.00
34176;PMS7003;20450;49.074;9.158;2023-12-07T04:44:39;34.33;31.67;23.00
34176;PMS7003;20450;49.074;9.158;2023-12-07T04:47:07;32.67;31.00;22.00
34176;PMS7003;20450;49.074;9.158;2023-12-07T04:49:35;30.67;27.67;18.33
34176;PMS7003;20450;49.074;9.158;2023-12-07T04:52:06;30.00;25.00;18.00
34176;PMS7003;20450;49.074;9.158;2023-12-07T04:54:33;37.67;33.67;22.67
34176;PMS7003;20450;49.074;9.158;2023-12-07T04:57:01;28.00;23.67;17.67
34176;PMS7003;20450;49.074;9.158;2023-12-07T04:59:28;28.67;27.67;19.00
34176;PMS7003;20450;49.074;9.158;2023-12-07T05:01:56;31.00;31.00;23.00
34176;PMS7003;20450;49.074;9.158;2023-12-07T05:04:24;23.67;23.33;18.00
34176;PMS7003;20450;49.074;9.158;2023-12-07T05:06:51;30.00;28.67;21.33
34176;PMS7003;20450;49.074;9.158;2023-12-07T05:09:20;37.00;34.33;23.00
34176;PMS7003;20450;49.074;9.158;2023-12-07T05:11:48;36.00;32.33;23.00
34176;PMS7003;20450;49.074;9.158;2023-12-07T05:14:15;35.33;34.00;22.33
34176;PMS7003;20450;49.074;9.158;2023-12-07T05:16:43;33.67;30.67;23.00
34176;PMS7003;20450;49.074;9.158;2023-12-07T05:19:11;32.00;31.00;23.00
34176;PMS7003;20450;49.074;9.158;2023-12-07T05:21:39;35.00;31.00;22.33
34176;PMS7003;20450;49.074;9.158;2023-12-07T05:24:07;44.33;34.67;24.00
34176;PMS7003;20450;49.074;9.158;2023-12-07T05:26:34;34.33;29.33;23.00
34176;PMS7003;20450;49.074;9.158;2023-12-07T05:29:01;40.33;34.33;23.67
34176;PMS7003;20450;49.074;9.158;2023-12-07T05:31:28;34.33;32.00;25.00
34176;PMS7003;20450;49.074;9.158;2023-12-07T05:33:55;37.33;36.00;25.67
34176;PMS7003;20450;49.074;9.158;2023-12-07T05:36:22;34.67;33.33;24.00
34176;PMS7003;20450;49.074;9.158;2023-12-07T05:38:51;28.00;26.33;19.67
34176;PMS7003;20450;49.074;9.158;2023-12-07T05:41:18;31.00;27.67;21.67
34176;PMS7003;20450;49.074;9.158;2023-12-07T05:43:45;28.00;27.67;18.67
34176;PMS7003;20450;49.074;9.158;2023-12-07T05:46:13;24.33;23.00;17.00
34176;PMS7003;20450;49.074;9.158;2023-12-07T05:48:41;28.67;27.33;21.00
34176;PMS7003;20450;49.074;9.158;2023-12-07T05:51:11;30.67;27.00;21.33
34176;PMS7003;20450;49.074;9.158;2023-12-07T05:53:42;28.33;27.33;20.00
34176;PMS7003;20450;49.074;9.158;2023-12-07T05:56:16;32.00;28.00;23.00
34176;PMS7003;20450;49.074;9.158;2023-12-07T05:58:46;28.33;24.67;21.00
34176;PMS7003;20450;49.074;9.158;2023-12-07T06:01:16;26.67;23.67;17.33
34176;PMS7003;20450;49.074;9.158;2023-12-07T06:03:45;28.33;28.33;21.00
34176;PMS7003;20450;49.074;9.158;2023-12-07T06:06:12;22.67;21.33;16.33
34176;PMS7003;20450;49.074;9.158;2023-12-07T06:08:39;25.33;25.33;17.00
34176;PMS7003;20450;49.074;9.158;2023-12-07T06:11:07;26.33;26.33;19.00
34176;PMS7003;20450;49.074;9.158;2023-12-07T06:13:36;22.33;22.33;19.33
34176;PMS7003;20450;49.074;9.158;2023-12-07T06:16:04;30.33;29.00;21.67
34176;PMS7003;20450;49.074;9.158;2023-12-07T06:18:32;23.33;23.00;16.33
34176;PMS7003;20450;49.074;9.158;2023-12-07T06:20:59;31.75;27.75;19.50
34176;PMS7003;20450;49.074;9.158;2023-12-07T06:23:26;27.33;25.67;18.67
34176;PMS7003;20450;49.074;9.158;2023-12-07T06:25:53;32.00;28.00;20.00
34176;PMS7003;20450;49.074;9.158;2023-12-07T06:28:21;32.33;30.67;21.67
34176;PMS7003;20450;49.074;9.158;2023-12-07T06:30:50;29.00;29.00;22.67
34176;PMS7003;20450;49.074;9.158;2023-12-07T06:33:20;34.67;32.33;23.00
34176;PMS7003;20450;49.074;9.158;2023-12-07T06:35:48;40.00;34.00;25.00
34176;PMS7003;20450;49.074;9.158;2023-12-07T06:38:16;44.00;37.33;27.00
34176;PMS7003;20450;49.074;9.158;2023-12-07T06:40:46;43.67;39.33;27.00
34176;PMS7003;20450;49.074;9.158;2023-12-07T06:43:14;47.00;39.67;26.00
34176;PMS7003;20450;49.074;9.158;2023-12-07T06:45:42;50.33;41.67;29.00
34176;PMS7003;20450;49.074;9.158;2023-12-07T06:48:14;40.00;37.00;26.00
34176;PMS7003;20450;49.074;9.158;2023-12-07T06:50:42;38.67;35.33;25.00
34176;PMS7003;20450;49.074;9.158;2023-12-07T06:53:09;37.67;34.67;24.33
34176;PMS7003;20450;49.074;9.158;2023-12-07T06:55:36;36.67;33.67;23.67
34176;PMS7003;20450;49.074;9.158;2023-12-07T06:58:11;42.67;38.00;25.33
34176;PMS7003;20450;49.074;9.158;2023-12-07T07:00:38;47.33;38.33;25.67
34176;PMS7003;20450;49.074;9.158;2023-12-07T07:03:07;40.67;37.00;26.00
34176;PMS7003;20450;49.074;9.158;2023-12-07T07:05:36;37.67;36.00;26.67
34176;PMS7003;20450;49.074;9.158;2023-12-07T07:08:03;40.67;37.00;25.67
34176;PMS7003;20450;49.074;9.158;2023-12-07T07:10:31;37.33;36.00;26.33
34176;PMS7003;20450;49.074;9.158;2023-12-07T07:13:01;47.33;38.00;26.67
34176;PMS7003;20450;49.074;9.158;2023-12-07T07:15:28;39.67;35.00;25.00
34176;PMS7003;20450;49.074;9.158;2023-12-07T07:17:55;33.33;30.00;21.00
34176;PMS7003;20450;49.074;9.158;2023-12-07T07:20:23;49.00;37.00;25.33
34176;PMS7003;20450;49.074;9.158;2023-12-07T07:22:52;42.00;35.00;25.33
34176;PMS7003;20450;49.074;9.158;2023-12-07T07:25:19;38.67;32.67;23.00
34176;PMS7003;20450;49.074;9.158;2023-12-07T07:27:46;38.33;34.67;21.67
34176;PMS7003;20450;49.074;9.158;2023-12-07T07:30:14;46.33;40.33;28.00
34176;PMS7003;20450;49.074;9.158;2023-12-07T07:32:41;32.00;28.00;20.33
34176;PMS7003;20450;49.074;9.158;2023-12-07T07:35:09;33.33;30.00;22.00
34176;PMS7003;20450;49.074;9.158;2023-12-07T07:37:36;49.00;38.33;25.67
34176;PMS7003;20450;49.074;9.158;2023-12-07T07:40:05;34.00;32.00;23.00
34176;PMS7003;20450;49.074;9.158;2023-12-07T07:42:37;42.33;35.67;25.00
34176;PMS7003;20450;49.074;9.158;2023-12-07T07:45:05;36.00;32.00;23.67
34176;PMS7003;20450;49.074;9.158;2023-12-07T07:47:35;42.67;35.00;25.33
34176;PMS7003;20450;49.074;9.158;2023-12-07T07:50:03;47.00;38.00;27.33
34176;PMS7003;20450;49.074;9.158;2023-12-07T07:52:32;49.67;41.33;28.67
34176;PMS7003;20450;49.074;9.158;2023-12-07T07:54:59;49.00;39.00;27.00
34176;PMS7003;20450;49.074;9.158;2023-12-07T07:57:30;49.00;40.00;27.00
34176;PMS7003;20450;49.074;9.158;2023-12-07T07:59:58;42.50;37.50;26.25
34176;PMS7003;20450;49.074;9.158;2023-12-07T08:02:25;48.25;39.50;27.75
34176;PMS7003;20450;49.074;9.158;2023-12-07T08:04:52;39.25;35.00;25.25
34176;PMS7003;20450;49.074;9.158;2023-12-07T08:07:20;47.00;38.25;26.75
34176;PMS7003;20450;49.074;9.158;2023-12-07T08:09:47;41.50;38.50;22.25
34176;PMS7003;20450;49.074;9.158;2023-12-07T08:12:15;27.75;25.25;15.00
34176;PMS7003;20450;49.074;9.158;2023-12-07T08:14:43;24.00;21.50;14.00
34176;PMS7003;20450;49.074;9.158;2023-12-07T08:17:11;34.50;29.75;19.25
34176;PMS7003;20450;49.074;9.158;2023-12-07T08:19:38;39.75;36.00;27.00
34176;PMS7003;20450;49.074;9.158;2023-12-07T08:22:06;44.75;35.25;21.75
34176;PMS7003;20450;49.074;9.158;2023-12-07T08:24:34;27.00;25.50;15.00
34176;PMS7003;20450;49.074;9.158;2023-12-07T08:27:01;25.50;21.50;15.25
34176;PMS7003;20450;49.074;9.158;2023-12-07T08:29:30;29.75;26.75;21.50
34176;PMS7003;20450;49.074;9.158;2023-12-07T08:31:58;27.00;25.75;18.00
34176;PMS7003;20450;49.074;9.158;2023-12-07T08:34:25;26.50;21.50;14.00
34176;PMS7003;20450;49.074;9.158;2023-12-07T08:36:54;32.75;21.75;16.50
34176;PMS7003;20450;49.074;9.158;2023-12-07T08:39:21;29.25;27.00;18.50
34176;PMS7003;20450;49.074;9.158;2023-12-07T08:41:52;33.75;31.00;22.00
34176;PMS7003;20450;49.074;9.158;2023-12-07T08:44:19;38.25;36.50;27.75
34176;PMS7003;20450;49.074;9.158;2023-12-07T08:46:46;43.50;41.00;30.00
34176;PMS7003;20450;49.074;9.158;2023-12-07T08:49:15;33.00;28.00;22.00
34176;PMS7003;20450;49.074;9.158;2023-12-07T08:51:42;21.67;20.33;13.00
34176;PMS7003;20450;49.074;9.158;2023-12-07T08:54:30;24.75;23.75;17.00
34176;PMS7003;20450;49.074;9.158;2023-12-07T08:56:58;21.67;16.00;13.00
34176;PMS7003;20450;49.074;9.158;2023-12-07T08:59:25;16.67;16.67;12.33
34176;PMS7003;20450;49.074;9.158;2023-12-07T09:01:52;20.33;18.00;13.00
34176;PMS7003;20450;49.074;9.158;2023-12-07T09:04:20;22.50;18.75;12.25
34176;PMS7003;20450;49.074;9.158;2023-12-07T09:06:48;21.75;18.25;12.00
34176;PMS7003;20450;49.074;9.158;2023-12-07T09:09:15;25.00;21.75;16.00
34176;PMS7003;20450;49.074;9.158;2023-12-07T09:11:42;25.25;21.00;16.00
34176;PMS7003;20450;49.074;9.158;2023-12-07T09:14:09;32.00;26.75;19.50
34176;PMS7003;20450;49.074;9.158;2023-12-07T09:16:42;62.50;52.50;34.00
34176;PMS7003;20450;49.074;9.158;2023-12-07T09:19:10;25.50;24.00;15.75
34176;PMS7003;20450;49.074;9.158;2023-12-07T09:21:38;26.75;24.75;15.00
34176;PMS7003;20450;49.074;9.158;2023-12-07T09:24:05;21.75;19.00;14.50
34176;PMS7003;20450;49.074;9.158;2023-12-07T09:26:33;25.25;22.00;17.50
34176;PMS7003;20450;49.074;9.158;2023-12-07T09:29:00;28.00;21.25;16.00
34176;PMS7003;20450;49.074;9.158;2023-12-07T09:31:28;24.75;22.00;16.00
34176;PMS7003;20450;49.074;9.158;2023-12-07T09:33:56;22.25;20.00;15.00
34176;PMS7003;20450;49.074;9.158;2023-12-07T09:36:38;22.00;18.00;13.00
34176;PMS7003;20450;49.074;9.158;2023-12-07T09:39:05;24.00;21.75;15.00
34176;PMS7003;20450;49.074;9.158;2023-12-07T09:41:34;16.50;16.00;12.00
34176;PMS7003;20450;49.074;9.158;2023-12-07T09:44:01;26.50;20.25;16.00
34176;PMS7003;20450;49.074;9.158;2023-12-07T09:46:29;24.00;23.25;15.75
34176;PMS7003;20450;49.074;9.158;2023-12-07T09:48:58;22.25;18.25;15.75
34176;PMS7003;20450;49.074;9.158;2023-12-07T09:51:25;25.00;22.25;17.50
34176;PMS7003;20450;49.074;9.158;2023-12-07T09:53:59;25.50;19.50;15.50
34176;PMS7003;20450;49.074;9.158;2023-12-07T09:56:27;22.50;22.00;18.00
34176;PMS7003;20450;49.074;9.158;2023-12-07T09:58:56;22.00;21.50;16.50
34176;PMS7003;20450;49.074;9.158;2023-12-07T10:01:27;25.75;25.75;20.00
34176;PMS7003;20450;49.074;9.158;2023-12-07T10:06:45;28.80;21.20;13.80
34176;PMS7003;20450;49.074;9.158;2023-12-07T10:09:15;26.20;25.00;20.20
34176;PMS7003;20450;49.074;9.158;2023-12-07T10:12:01;26.40;21.20;16.00
34176;PMS7003;20450;49.074;9.158;2023-12-07T10:14:29;26.00;21.20;16.60
34176;PMS7003;20450;49.074;9.158;2023-12-07T10:16:56;23.80;22.20;17.40
34176;PMS7003;20450;49.074;9.158;2023-12-07T10:19:24;27.00;19.50;14.50
34176;PMS7003;20450;49.074;9.158;2023-12-07T10:21:58;20.50;19.75;13.75
34176;PMS7003;20450;49.074;9.158;2023-12-07T10:24:28;22.20;18.40;14.40
34176;PMS7003;20450;49.074;9.158;2023-12-07T10:26:59;20.25;20.25;13.75
34176;PMS7003;20450;49.074;9.158;2023-12-07T10:29:29;25.00;20.50;16.00
34176;PMS7003;20450;49.074;9.158;2023-12-07T10:32:00;21.50;20.00;16.00
34176;PMS7003;20450;49.074;9.158;2023-12-07T10:34:28;13.25;12.25;9.75
34176;PMS7003;20450;49.074;9.158;2023-12-07T10:36:56;16.00;14.80;12.20
34176;PMS7003;20450;49.074;9.158;2023-12-07T10:39:24;20.80;19.80;13.60
34176;PMS7003;20450;49.074;9.158;2023-12-07T10:42:02;19.60;17.20;14.20
34176;PMS7003;20450;49.074;9.158;2023-12-07T10:44:35;23.40;18.40;14.20
34176;PMS7003;20450;49.074;9.158;2023-12-07T10:47:08;19.50;18.00;15.00
34176;PMS7003;20450;49.074;9.158;2023-12-07T10:49:38;24.00;18.75;13.50
34176;PMS7003;20450;49.074;9.158;2023-12-07T10:52:13;17.50;15.00;9.50
34176;PMS7003;20450;49.074;9.158;2023-12-07T10:54:48;19.25;14.00;10.00
34176;PMS7003;20450;49.074;9.158;2023-12-07T10:57:25;21.50;19.50;12.00
34176;PMS7003;20450;49.074;9.158;2023-12-07T10:59:55;19.50;15.75;10.25
34176;PMS7003;20450;49.074;9.158;2023-12-07T11:02:30;16.50;14.00;12.00
34176;PMS7003;20450;49.074;9.158;2023-12-07T11:05:05;17.00;12.25;9.50
34176;PMS7003;20450;49.074;9.158;2023-12-07T11:07:38;10.00;9.00;6.75
34176;PMS7003;20450;49.074;9.158;2023-12-07T11:10:20;15.50;15.50;12.25
34176;PMS7003;20450;49.074;9.158;2023-12-07T11:12:56;14.50;14.50;11.00
34176;PMS7003;20450;49.074;9.158;2023-12-07T11:15:38;20.00;18.00;15.00
34176;PMS7003;20450;49.074;9.158;2023-12-07T11:18:10;21.75;15.75;12.00
34176;PMS7003;20450;49.074;9.158;2023-12-07T11:20:41;21.25;18.75;14.50
34176;PMS7003;20450;49.074;9.158;2023-12-07T11:23:16;15.50;15.00;10.50
34176;PMS7003;20450;49.074;9.158;2023-12-07T11:25:47;19.50;16.25;11.00
34176;PMS7003;20450;49.074;9.158;2023-12-07T11:28:17;19.75;15.50;12.50
34176;PMS7003;20450;49.074;9.158;2023-12-07T11:30:47;19.50;17.00;13.25
34176;PMS7003;20450;49.074;9.158;2023-12-07T11:33:15;20.50;16.00;13.00
34176;PMS7003;20450;49.074;9.158;2023-12-07T11:36:05;29.75;24.00;15.75
34176;PMS7003;20450;49.074;9.158;2023-12-07T11:38:36;21.75;19.25;15.25
34176;PMS7003;20450;49.074;9.158;2023-12-07T11:41:09;21.40;19.20;14.60
34176;PMS7003;20450;49.074;9.158;2023-12-07T11:43:40;27.20;20.00;14.40
34176;PMS7003;20450;49.074;9.158;2023-12-07T11:46:09;24.60;21.40;16.80
34176;PMS7003;20450;49.074;9.158;2023-12-07T11:48:37;18.00;16.80;12.00
34176;PMS7003;20450;49.074;9.158;2023-12-07T11:51:06;15.80;14.20;9.60
34176;PMS7003;20450;49.074;9.158;2023-12-07T11:53:35;12.60;11.80;8.80
34176;PMS7003;20450;49.074;9.158;2023-12-07T11:56:04;12.50;10.00;9.00
34176;PMS7003;20450;49.074;9.158;2023-12-07T11:58:36;11.00;9.75;8.00
34176;PMS7003;20450;49.074;9.158;2023-12-07T12:01:07;9.00;8.50;6.50
34176;PMS7003;20450;49.074;9.158;2023-12-07T12:03:35;8.00;7.00;5.75
34176;PMS7003;20450;49.074;9.158;2023-12-07T12:06:05;9.25;6.50;4.00
34176;PMS7003;20450;49.074;9.158;2023-12-07T12:08:33;7.50;7.50;6.25
34176;PMS7003;20450;49.074;9.158;2023-12-07T12:11:01;9.00;9.00;5.50
34176;PMS7003;20450;49.074;9.158;2023-12-07T12:13:33;9.25;9.25;6.50
34176;PMS7003;20450;49.074;9.158;2023-12-07T12:16:05;7.67;7.67;6.33
34176;PMS7003;20450;49.074;9.158;2023-12-07T12:18:40;9.75;9.25;7.50
34176;PMS7003;20450;49.074;9.158;2023-12-07T12:21:11;9.00;6.33;6.00
34176;PMS7003;20450;49.074;9.158;2023-12-07T12:23:38;18.75;12.00;7.00
34176;PMS7003;20450;49.074;9.158;2023-12-07T12:26:07;7.00;7.00;6.00
34176;PMS7003;20450;49.074;9.158;2023-12-07T12:28:36;5.33;5.33;3.67
34176;PMS7003;20450;49.074;9.158;2023-12-07T12:31:05;11.75;10.25;8.00
34176;PMS7003;20450;49.074;9.158;2023-12-07T12:33:36;7.00;6.00;4.00
34176;PMS7003;20450;49.074;9.158;2023-12-07T12:36:04;6.00;6.00;4.00
34176;PMS7003;20450;49.074;9.158;2023-12-07T12:38:34;12.75;9.25;6.00
34176;PMS7003;20450;49.074;9.158;2023-12-07T12:41:09;9.00;9.00;7.00
34176;PMS7003;20450;49.074;9.158;2023-12-07T12:43:39;7.00;6.25;4.00
34176;PMS7003;20450;49.074;9.158;2023-12-07T12:46:07;4.00;4.00;3.00
34176;PMS7003;20450;49.074;9.158;2023-12-07T12:48:34;6.00;6.00;4.00
34176;PMS7003;20450;49.074;9.158;2023-12-07T12:51:07;5.50;4.00;4.00
34176;PMS7003;20450;49.074;9.158;2023-12-07T12:53:35;9.75;9.00;8.25
34176;PMS7003;20450;49.074;9.158;2023-12-07T12:56:02;7.50;7.00;5.75
34176;PMS7003;20450;49.074;9.158;2023-12-07T12:58:30;19.75;16.75;12.75
34176;PMS7003;20450;49.074;9.158;2023-12-07T13:00:59;15.25;12.25;8.00
34176;PMS7003;20450;49.074;9.158;2023-12-07T13:03:26;10.00;10.00;8.25
34176;PMS7003;20450;49.074;9.158;2023-12-07T13:05:54;9.75;9.50;8.00
34176;PMS7003;20450;49.074;9.158;2023-12-07T13:08:22;9.00;8.75;7.25
34176;PMS7003;20450;49.074;9.158;2023-12-07T13:10:49;11.75;11.75;8.50
34176;PMS7003;20450;49.074;9.158;2023-12-07T13:13:17;9.25;9.25;7.00
34176;PMS7003;20450;49.074;9.158;2023-12-07T13:15:44;6.50;6.50;5.50
34176;PMS7003;20450;49.074;9.158;2023-12-07T13:18:12;12.25;11.25;8.00
34176;PMS7003;20450;49.074;9.158;2023-12-07T13:20:40;9.50;8.50;6.25
34176;PMS7003;20450;49.074;9.158;2023-12-07T13:23:21;11.00;9.25;7.00
34176;PMS7003;20450;49.074;9.158;2023-12-07T13:25:48;12.00;11.75;7.75
34176;PMS7003;20450;49.074;9.158;2023-12-07T13:28:15;9.50;8.50;7.50
34176;PMS7003;20450;49.074;9.158;2023-12-07T13:30:42;9.25;9.00;7.00
34176;PMS7003;20450;49.074;9.158;2023-12-07T13:33:09;9.25;9.25;6.75
34176;PMS7003;20450;49.074;9.158;2023-12-07T13:35:52;11.75;8.50;6.25
34176;PMS7003;20450;49.074;9.158;2023-12-07T13:38:20;7.25;7.25;6.00
34176;PMS7003;20450;49.074;9.158;2023-12-07T13:40:48;10.25;9.25;8.25
34176;PMS7003;20450;49.074;9.158;2023-12-07T13:43:16;8.00;7.50;6.00
34176;PMS7003;20450;49.074;9.158;2023-12-07T13:45:44;3.00;3.00;3.00
34176;PMS7003;20450;49.074;9.158;2023-12-07T13:48:12;6.75;6.75;5.25
34176;PMS7003;20450;49.074;9.158;2023-12-07T13:50:40;9.25;9.25;7.25
34176;PMS7003;20450;49.074;9.158;2023-12-07T13:53:10;7.50;7.50;5.75
34176;PMS7003;20450;49.074;9.158;2023-12-07T13:55:38;6.00;6.00;5.00
34176;PMS7003;20450;49.074;9.158;2023-12-07T13:58:06;7.25;6.00;5.25
34176;PMS7003;20450;49.074;9.158;2023-12-07T14:00:34;8.75;7.00;6.00
34176;PMS7003;20450;49.074;9.158;2023-12-07T14:03:04;13.75;12.00;9.00
34176;PMS7003;20450;49.074;9.158;2023-12-07T14:05:32;9.25;7.00;6.00